Terminal Aerodrome Forecast
Issued by NWS

Home | Current Version | Previous Version | Text Only | Print | Product List | Glossary On
Versions: 1 2 3 4 5 6 7 8 9 10 11 12 13 14 15 16 17 18 19 20 21 22 23 24 25 26
000
FTUS45 KGJT 220843 AAA
TAFEGE
TAF AMD
KEGE 220843Z 2209/2306 VRB05KT P6SM VCSH SCT015 BKN035 OVC090
      TEMPO 2209/2211 5SM SHRA BKN008 OVC035
     FM221100 VRB05KT 4SM SHRA BR SCT008 BKN035
      TEMPO 2211/2214 2SM SHRA BR BKN008
     FM221400 00000KT P6SM VCSH SCT070 BKN090
     FM221900 24012G18KT P6SM VCTS SCT090CB SCT150
     FM230200 03005KT P6SM BKN090
      AMD LTD TO CLD VIS AND WIND TIL 221300=

USA.gov is the U.S. government's official web portal to all federal, state and local government web resources and services.